This is the latest recevied weather packets stored in our database for station/object KO5MO-11. If no packets are shown the sender has not sent any weather packets the latest 10 day(s).
| Time | Temp. | Humidity | Pressure | Rain* | Wind** | Luminosity | Snow |
|---|---|---|---|---|---|---|---|
| 1777716872 | 25° C | 36% | 1009.7 hPa | - | - | 770 W/m² | - |
| 1777716272 | 26.11° C | 33% | 1009.7 hPa | - | - | 795 W/m² | - |
| 1777715672 | 25° C | 37% | 1009.7 hPa | - | - | 770 W/m² | - |
| 1777715072 | 23.89° C | 37% | 1009.6 hPa | - | - | 759 W/m² | - |
| 1777714472 | 24.44° C | 35% | 1009.6 hPa | - | - | 765 W/m² | - |
| 1777713872 | 25.56° C | 35% | 1009.5 hPa | - | - | 786 W/m² | - |
| 1777713272 | 24.44° C | 36% | 1009.4 hPa | - | - | 766 W/m² | - |
| 1777712672 | 25° C | 36% | 1009.3 hPa | - | - | 774 W/m² | - |
| 1777712072 | 26.11° C | 34% | 1009.2 hPa | - | - | 796 W/m² | - |
| 1777711472 | 23.89° C | 37% | 1009.2 hPa | - | - | 756 W/m² | - |
| 1777710872 | 24.44° C | 36% | 1009.2 hPa | - | - | 766 W/m² | - |
| 1777710272 | 25° C | 36% | 1009.1 hPa | - | - | 770 W/m² | - |
| 1777709672 | 25.56° C | 34% | 1009.2 hPa | - | - | 786 W/m² | - |
| 1777709072 | 25° C | 36% | 1009.2 hPa | - | - | 777 W/m² | - |
| 1777708472 | 24.44° C | 37% | 1009.2 hPa | - | - | 768 W/m² | - |
| 1777707872 | 25.56° C | 34% | 1009.1 hPa | - | - | 781 W/m² | - |
| 1777707272 | 25° C | 36% | 1009 hPa | - | - | 777 W/m² | - |
| 1777706672 | 25° C | 36% | 1008.7 hPa | - | - | 773 W/m² | - |
| 1777706072 | 26.11° C | 34% | 1008.7 hPa | - | - | 793 W/m² | - |
| 1777705472 | 25° C | 39% | 1008.7 hPa | - | - | 775 W/m² | - |
| 1777704872 | 23.89° C | 36% | 1008.6 hPa | - | - | 753 W/m² | - |
| 1777704272 | 24.44° C | 35% | 1008.7 hPa | - | - | 766 W/m² | - |
| 1777703672 | 25.56° C | 37% | 1008.6 hPa | - | - | 784 W/m² | - |
| 1777703072 | 23.89° C | 36% | 1008.6 hPa | - | - | 756 W/m² | - |
| 1777702472 | 26.11° C | 34% | 1008.6 hPa | - | - | 790 W/m² | - |
* Rain since midnight (hover to see other rain measurements)
** Current wind speed in m/s (hover to see current wind gust speed)